Time;durP1;ratioP1;P1;durP2;ratioP2;P2;SDS_P1;SDS_P2;PMS_P1;PMS_P2;Temp;Humidity;BMP_temperature;BMP_pressure;BME280_temperature;BME280_humidity;BME280_pressure;Samples;Min_cycle;Max_cycle;Signal;HPM_P1;HPM_P2
2023/01/12 00:01:45;;;;;;;8.05;3.65;;;;;;;8.05;100.00;162669.03;5049400;28;20041;-65
2023/01/12 00:04:12;;;;;;;10.95;3.75;;;;;;;8.05;100.00;162669.03;5050559;28;20037;-64
2023/01/12 00:06:37;;;;;;;6.95;2.22;;;;;;;8.00;100.00;162655.59;5049876;28;20098;-64
2023/01/12 00:09:03;;;;;;;4.28;2.65;;;;;;;7.99;100.00;162652.88;5050818;28;20419;-64
2023/01/12 00:11:29;;;;;;;4.90;3.08;;;;;;;7.98;100.00;162650.19;5052002;28;20142;-65
2023/01/12 00:13:54;;;;;;;10.00;3.03;;;;;;;7.98;100.00;162650.19;5071681;28;20028;-65
2023/01/12 00:16:33;;;;;;;2.70;2.17;;;;;;;7.89;100.00;162628.63;5069329;28;20033;-65
2023/01/12 00:19:00;;;;;;;7.88;2.35;;;;;;;7.83;100.00;162612.44;5055165;28;20037;-65
2023/01/12 00:21:26;;;;;;;6.53;2.17;;;;;;;7.79;100.00;162601.66;5049717;28;20120;-65
2023/01/12 00:23:51;;;;;;;2.28;1.80;;;;;;;7.71;100.00;162580.09;5050606;28;20050;-65
2023/01/12 00:26:16;;;;;;;5.88;2.55;;;;;;;7.63;100.00;162561.22;5049690;28;20408;-64
2023/01/12 00:28:42;;;;;;;5.63;3.22;;;;;;;7.59;100.00;162549.13;5050772;28;20037;-65
2023/01/12 00:31:09;;;;;;;6.25;3.20;;;;;;;7.56;100.00;162542.38;5049094;28;20037;-65
2023/01/12 00:33:37;;;;;;;5.13;3.30;;;;;;;7.53;100.00;162534.31;5051151;28;20029;-65
2023/01/12 00:36:08;;;;;;;8.57;2.63;;;;;;;7.51;100.00;162528.91;5050011;28;20110;-65
2023/01/12 00:38:35;;;;;;;3.28;3.03;;;;;;;7.45;100.00;162512.75;5050711;28;20383;-66
2023/01/12 00:41:05;;;;;;;4.70;2.17;;;;;;;7.50;100.00;162526.19;5049581;28;20033;-66
2023/01/12 00:46:15;;;;;;;8.82;3.25;;;;;;;7.49;100.00;162523.50;5049486;28;20043;-65
2023/01/12 00:48:40;;;;;;;6.72;2.20;;;;;;;7.52;100.00;162531.59;5050917;28;20029;-66
2023/01/12 00:51:06;;;;;;;3.10;2.80;;;;;;;7.55;100.00;162539.72;5049412;28;20041;-65
2023/01/12 00:53:31;;;;;;;4.60;2.22;;;;;;;7.52;100.00;162531.59;5050668;28;20036;-66
2023/01/12 00:56:03;;;;;;;12.45;4.28;;;;;;;7.53;100.00;162534.31;5049232;28;20051;-66
2023/01/12 00:58:29;;;;;;;7.32;4.53;;;;;;;7.52;100.00;162530.28;5050255;28;20025;-66
2023/01/12 01:01:02;;;;;;;11.68;5.43;;;;;;;7.61;100.00;162555.88;5049091;28;20090;-66
2023/01/12 01:03:28;;;;;;;11.02;4.72;;;;;;;7.62;100.00;162558.56;5050309;28;20488;-67
2023/01/12 01:06:03;;;;;;;31.70;5.93;;;;;;;7.61;100.00;162555.88;5049323;28;20033;-66
2023/01/12 01:08:29;;;;;;;9.15;3.65;;;;;;;7.63;100.00;162559.91;5050204;28;20027;-66
2023/01/12 01:11:07;;;;;;;15.93;4.88;;;;;;;7.68;100.00;162572.03;5049457;28;20395;-66
2023/01/12 01:13:35;;;;;;;13.32;7.60;;;;;;;7.67;100.00;162570.66;5050310;28;20048;-66
2023/01/12 01:16:01;;;;;;;10.38;6.00;;;;;;;7.75;100.00;162590.88;5049256;28;20041;-67
2023/01/12 01:18:27;;;;;;;10.30;4.47;;;;;;;7.75;100.00;162590.88;5049581;28;20032;-66
2023/01/12 01:20:53;;;;;;;14.90;6.35;;;;;;;7.82;100.00;162608.44;5048730;28;20496;-66
2023/01/12 01:23:20;;;;;;;12.00;6.22;;;;;;;7.86;100.00;162620.50;5050450;28;20060;-67
2023/01/12 01:25:45;;;;;;;5.93;4.05;;;;;;;7.92;100.00;162636.72;5048872;28;20033;-62
2023/01/12 01:28:10;;;;;;;11.68;7.25;;;;;;;7.94;100.00;162642.06;5050041;28;20032;-66
2023/01/12 01:30:36;;;;;;;13.05;6.15;;;;;;;7.98;100.00;162651.50;5048930;28;20056;-66
2023/01/12 01:33:01;;;;;;;17.80;6.53;;;;;;;7.96;100.00;162644.78;5050797;28;20021;-65
2023/01/12 01:35:26;;;;;;;13.50;6.88;;;;;;;8.01;100.00;162659.63;5052584;28;20029;-65
2023/01/12 01:37:52;;;;;;;22.25;6.82;;;;;;;8.08;100.00;162677.09;5053945;28;20080;-66
2023/01/12 01:40:17;;;;;;;13.45;5.22;;;;;;;8.13;100.00;162690.63;5052809;28;20029;-66
2023/01/12 01:42:43;;;;;;;11.02;5.15;;;;;;;8.16;100.00;162698.66;5054410;28;20021;-66
2023/01/12 01:45:11;;;;;;;15.10;5.60;;;;;;;8.21;100.00;162710.81;5053775;28;20041;-66
2023/01/12 01:47:41;;;;;;;17.15;6.97;;;;;;;8.19;100.00;162706.78;5053052;28;20571;-65
2023/01/12 01:50:22;;;;;;;26.30;7.82;;;;;;;8.24;100.00;162720.25;5054220;28;20075;-66
2023/01/12 01:52:55;;;;;;;17.48;6.18;;;;;;;8.26;100.00;162725.63;5037620;28;20037;-66
2023/01/12 01:55:41;;;;;;;21.30;6.97;;;;;;;8.21;100.00;162712.19;5052492;28;20070;-66
2023/01/12 01:58:11;;;;;;;16.15;7.10;;;;;;;8.17;100.00;162701.38;5052909;28;20048;-65
2023/01/12 02:00:39;;;;;;;14.15;6.13;;;;;;;8.18;100.00;162704.06;5052908;28;20041;-66
2023/01/12 02:03:07;;;;;;;19.00;7.35;;;;;;;8.14;100.00;162691.94;5053557;28;20546;-66
2023/01/12 02:05:33;;;;;;;20.05;9.15;;;;;;;8.20;100.00;162709.47;5052335;28;20045;-65
2023/01/12 02:08:07;;;;;;;15.45;6.85;;;;;;;8.19;100.00;162705.44;5053651;28;20035;-65
2023/01/12 02:10:33;;;;;;;24.15;7.85;;;;;;;8.14;100.00;162693.31;5052212;28;20041;-65
2023/01/12 02:19:22;;;;;;;11.35;6.15;;;;;;;8.11;100.00;162685.19;5053800;28;20044;-65
2023/01/12 02:22:12;;;;;;;14.05;6.25;;;;;;;8.09;100.00;162679.81;5032066;28;20065;-65
2023/01/12 02:25:13;;;;;;;12.35;4.85;;;;;;;8.11;100.00;162685.19;5033829;28;20144;-65
2023/01/12 02:27:56;;;;;;;24.67;6.55;;;;;;;8.09;100.00;162679.81;5028085;28;20434;-64
2023/01/12 02:30:21;;;;;;;14.65;5.70;;;;;;;8.04;100.00;162666.34;5051652;28;20029;-64
2023/01/12 02:33:25;;;;;;;22.08;5.88;;;;;;;8.04;100.00;162666.34;5053744;28;20143;-64
2023/01/12 02:35:56;;;;;;;12.38;5.65;;;;;;;8.05;100.00;162669.03;5051555;28;20612;-64
2023/01/12 02:38:28;;;;;;;11.75;5.65;;;;;;;8.03;100.00;162663.63;5052849;28;20055;-64
2023/01/12 02:41:08;;;;;;;17.30;6.25;;;;;;;8.04;100.00;162666.34;5051800;28;20048;-64
2023/01/12 02:43:35;;;;;;;13.80;6.05;;;;;;;8.00;100.00;162655.59;5054267;28;20104;-64
2023/01/12 02:46:30;;;;;;;13.63;5.97;;;;;;;8.04;100.00;162666.34;5051042;28;20037;-64
2023/01/12 02:49:03;;;;;;;16.17;4.85;;;;;;;8.05;100.00;162670.38;5043989;28;20036;-63
2023/01/12 02:51:36;;;;;;;13.60;6.13;;;;;;;8.06;100.00;162671.75;5051165;28;20052;-63
2023/01/12 02:54:05;;;;;;;14.38;6.78;;;;;;;8.04;100.00;162667.66;5052755;28;20526;-63
2023/01/12 02:56:35;;;;;;;15.05;5.78;;;;;;;8.09;100.00;162679.81;5051677;28;20060;-63
2023/01/12 02:59:08;;;;;;;22.48;8.10;;;;;;;8.09;100.00;162681.19;5052275;28;20039;-63
2023/01/12 03:01:35;;;;;;;10.43;5.40;;;;;;;8.10;100.00;162683.88;5051410;28;20041;-63
2023/01/12 03:04:04;;;;;;;11.27;6.68;;;;;;;8.10;100.00;162682.50;5052741;28;20068;-63
2023/01/12 03:06:44;;;;;;;15.27;5.85;;;;;;;8.07;100.00;162674.44;5050781;28;20043;-63
2023/01/12 03:09:11;;;;;;;15.52;7.07;;;;;;;8.13;100.00;162689.22;5052255;28;20045;-63
2023/01/12 03:11:39;;;;;;;14.68;6.32;;;;;;;8.11;100.00;162685.19;5051113;28;20674;-63
2023/01/12 03:14:08;;;;;;;19.85;5.97;;;;;;;8.09;100.00;162679.81;5052163;28;20036;-63
2023/01/12 03:16:35;;;;;;;22.38;6.47;;;;;;;8.10;100.00;162682.50;5051247;28;20124;-64
2023/01/12 03:19:24;;;;;;;20.17;5.63;;;;;;;8.11;100.00;162685.19;5052125;28;20054;-64
2023/01/12 03:21:54;;;;;;;15.38;7.47;;;;;;;8.10;100.00;162682.50;5051091;28;20052;-63
2023/01/12 03:24:25;;;;;;;33.55;5.72;;;;;;;8.10;100.00;162682.50;5052268;28;20025;-63
2023/01/12 03:26:57;;;;;;;8.05;3.83;;;;;;;8.11;100.00;162685.19;5050472;28;20045;-63
2023/01/12 03:29:32;;;;;;;11.25;4.65;;;;;;;8.12;100.00;162687.91;5051966;28;20024;-63
2023/01/12 03:31:58;;;;;;;19.10;5.38;;;;;;;8.13;100.00;162690.63;5052221;28;20041;-63
2023/01/12 03:34:24;;;;;;;8.13;4.57;;;;;;;8.15;100.00;162694.63;5051489;28;20418;-63
2023/01/12 03:37:11;;;;;;;11.23;5.10;;;;;;;8.15;100.00;162694.63;5050959;28;20499;-63
2023/01/12 03:39:49;;;;;;;16.25;6.43;;;;;;;8.13;100.00;162690.63;5052008;28;20446;-64
2023/01/12 03:42:24;;;;;;;17.40;7.95;;;;;;;8.15;100.00;162696.00;5049933;28;20045;-64
2023/01/12 03:45:14;;;;;;;14.80;3.92;;;;;;;8.14;100.00;162693.31;5052109;28;20116;-64
2023/01/12 03:47:42;;;;;;;19.73;6.65;;;;;;;8.09;100.00;162681.19;5042394;28;20103;-65
2023/01/12 03:50:13;;;;;;;13.83;4.43;;;;;;;8.12;100.00;162686.59;5051177;28;20021;-65
2023/01/12 03:52:41;;;;;;;28.45;8.02;;;;;;;8.10;100.00;162683.88;5050614;28;20045;-65
2023/01/12 03:55:10;;;;;;;13.25;5.57;;;;;;;8.12;100.00;162687.91;5051653;28;20031;-65
2023/01/12 03:57:37;;;;;;;16.42;6.75;;;;;;;8.14;100.00;162693.31;5049059;28;20048;-65
2023/01/12 04:00:06;;;;;;;21.05;5.68;;;;;;;8.12;100.00;162687.91;5051682;28;20029;-65
2023/01/12 04:02:32;;;;;;;10.57;5.10;;;;;;;8.13;100.00;162690.63;5049903;28;20385;-66
2023/01/12 04:04:58;;;;;;;23.27;7.10;;;;;;;8.11;100.00;162685.19;5051283;28;20135;-65
2023/01/12 04:07:23;;;;;;;14.15;5.90;;;;;;;8.10;100.00;162682.50;5050094;28;20045;-67
2023/01/12 04:09:49;;;;;;;15.55;6.15;;;;;;;8.11;100.00;162685.19;5051663;28;20033;-67
2023/01/12 04:12:14;;;;;;;21.25;5.72;;;;;;;8.09;100.00;162679.81;5049568;28;20102;-67
2023/01/12 04:14:42;;;;;;;17.15;5.78;;;;;;;8.12;100.00;162687.91;5054122;28;20084;-67
2023/01/12 04:17:10;;;;;;;27.30;8.23;;;;;;;8.14;100.00;162693.31;5052269;28;20037;-65
2023/01/12 04:19:36;;;;;;;18.17;7.28;;;;;;;8.14;100.00;162691.94;5050985;28;20025;-64
2023/01/12 04:24:45;;;;;;;17.38;5.97;;;;;;;8.13;100.00;162690.63;5051437;28;20395;-64
2023/01/12 04:27:11;;;;;;;19.15;6.13;;;;;;;8.15;100.00;162696.00;5048854;28;20045;-64
2023/01/12 04:29:36;;;;;;;23.33;9.18;;;;;;;8.12;100.00;162687.91;5054613;28;20028;-64
2023/01/12 04:32:03;;;;;;;10.65;5.00;;;;;;;8.13;100.00;162690.63;5069925;28;20051;-63
2023/01/12 04:34:29;;;;;;;18.95;5.35;;;;;;;8.10;100.00;162683.88;5070536;28;20118;-64
2023/01/12 04:36:54;;;;;;;15.32;5.10;;;;;;;8.08;100.00;162678.47;5057478;28;20099;-64
2023/01/12 04:39:19;;;;;;;19.25;6.80;;;;;;;8.10;100.00;162682.50;5051175;28;20122;-64
2023/01/12 04:41:44;;;;;;;12.45;5.38;;;;;;;8.13;100.00;162690.63;5049269;28;20037;-64
2023/01/12 04:44:10;;;;;;;19.70;5.57;;;;;;;8.12;100.00;162686.59;5050826;28;20036;-64
2023/01/12 04:46:35;;;;;;;15.43;5.07;;;;;;;8.10;100.00;162682.50;5049448;28;20045;-63
2023/01/12 04:49:01;;;;;;;7.40;4.47;;;;;;;8.10;100.00;162682.50;5050632;28;20025;-64
2023/01/12 04:51:26;;;;;;;16.27;5.10;;;;;;;8.11;100.00;162685.19;5049512;28;20037;-64
2023/01/12 04:53:52;;;;;;;16.63;5.40;;;;;;;8.12;100.00;162686.59;5050681;28;20020;-64
2023/01/12 04:56:18;;;;;;;14.43;3.88;;;;;;;8.11;100.00;162685.19;5048787;28;20079;-63
2023/01/12 04:58:43;;;;;;;12.75;4.45;;;;;;;8.12;100.00;162687.91;5050953;28;20017;-64
2023/01/12 05:01:15;;;;;;;21.65;6.22;;;;;;;8.09;100.00;162681.19;5049150;28;20048;-64
2023/01/12 05:03:41;;;;;;;16.73;4.22;;;;;;;8.10;100.00;162682.50;5049934;28;20065;-63
2023/01/12 05:06:06;;;;;;;12.57;4.53;;;;;;;8.09;100.00;162679.81;5048864;28;20439;-63
2023/01/12 05:11:16;;;;;;;8.20;3.85;;;;;;;8.03;100.00;162663.63;5068849;28;20052;-63
2023/01/12 05:13:41;;;;;;;17.65;5.72;;;;;;;8.03;100.00;162665.00;5070733;28;20016;-69
2023/01/12 05:16:17;;;;;;;18.52;5.20;;;;;;;8.01;100.00;162658.22;5062224;28;20059;-68
2023/01/12 05:18:44;;;;;;;10.30;3.17;;;;;;;7.96;100.00;162644.78;5050221;28;20066;-68
2023/01/12 05:21:14;;;;;;;6.60;3.58;;;;;;;7.93;100.00;162639.38;5048616;28;20466;-64
2023/01/12 05:23:39;;;;;;;10.18;4.47;;;;;;;7.96;100.00;162644.78;5050896;28;20083;-62
2023/01/12 05:26:05;;;;;;;9.93;3.13;;;;;;;7.94;100.00;162642.06;5057806;28;20037;-62
2023/01/12 05:28:31;;;;;;;13.35;5.80;;;;;;;7.91;100.00;162634.00;5057052;28;20475;-63
2023/01/12 05:31:06;;;;;;;10.35;3.88;;;;;;;7.90;100.00;162629.94;5049151;28;20044;-63
2023/01/12 05:33:31;;;;;;;9.25;4.22;;;;;;;7.89;100.00;162628.63;5050688;28;20021;-63
2023/01/12 05:35:57;;;;;;;11.65;3.85;;;;;;;7.92;100.00;162636.72;5048934;28;20646;-62
2023/01/12 05:38:22;;;;;;;7.30;3.63;;;;;;;7.98;100.00;162650.19;5058228;28;20020;-62
2023/01/12 05:40:48;;;;;;;10.18;4.13;;;;;;;7.98;100.00;162650.19;5068346;28;20044;-63
2023/01/12 05:46:02;;;;;;;9.70;3.80;;;;;;;8.04;100.00;162666.34;5022817;28;20124;-62
2023/01/12 05:48:27;;;;;;;10.15;5.15;;;;;;;8.07;100.00;162674.44;5010577;28;20060;-63
2023/01/12 05:50:52;;;;;;;9.30;3.05;;;;;;;8.08;100.00;162678.47;5038603;28;20052;-63
2023/01/12 05:53:18;;;;;;;13.05;4.90;;;;;;;8.07;100.00;162674.44;5030238;28;20435;-62
2023/01/12 05:55:43;;;;;;;11.32;3.88;;;;;;;8.10;100.00;162682.50;5046617;28;20518;-62
2023/01/12 05:58:08;;;;;;;8.40;3.88;;;;;;;8.11;100.00;162685.19;5050119;28;20388;-62
2023/01/12 06:00:34;;;;;;;11.10;3.35;;;;;;;8.16;100.00;162698.66;5048697;28;20044;-62
2023/01/12 06:03:01;;;;;;;13.00;3.95;;;;;;;8.15;100.00;162696.00;5049363;28;20055;-62
2023/01/12 06:05:27;;;;;;;5.85;3.05;;;;;;;8.21;100.00;162712.19;5048304;28;20124;-62
2023/01/12 06:07:52;;;;;;;10.77;3.95;;;;;;;8.25;100.00;162722.94;5051304;28;20017;-62
2023/01/12 06:10:17;;;;;;;10.18;3.78;;;;;;;8.28;100.00;162728.34;5052582;28;20021;-62
2023/01/12 06:15:26;;;;;;;11.00;5.22;;;;;;;8.32;100.00;162739.09;5046094;28;20087;-63
2023/01/12 06:17:52;;;;;;;12.35;3.63;;;;;;;8.37;100.00;162752.63;5045543;28;20032;-62
2023/01/12 06:20:17;;;;;;;5.97;2.38;;;;;;;8.40;100.00;162760.69;5040367;28;20025;-62
2023/01/12 06:22:43;;;;;;;4.93;2.55;;;;;;;8.36;100.00;162749.91;5047809;28;20031;-62
2023/01/12 06:25:10;;;;;;;7.90;2.63;;;;;;;8.37;100.00;162752.63;5043390;28;20033;-63
2023/01/12 06:27:37;;;;;;;10.85;4.45;;;;;;;8.37;100.00;162752.63;5065375;28;20426;-62
2023/01/12 06:30:05;;;;;;;8.48;2.78;;;;;;;8.36;100.00;162749.91;5061414;28;20020;-63
2023/01/12 06:32:31;;;;;;;3.88;3.17;;;;;;;8.40;100.00;162762.06;5059692;28;20497;-62
2023/01/12 06:34:57;;;;;;;5.10;3.47;;;;;;;8.40;100.00;162762.06;5053091;28;20033;-62
2023/01/12 06:37:23;;;;;;;6.80;3.10;;;;;;;8.41;100.00;162763.38;5033495;28;20068;-62
2023/01/12 06:39:48;;;;;;;15.70;4.18;;;;;;;8.42;100.00;162766.09;5032064;28;20057;-63
2023/01/12 06:42:30;;;;;;;15.18;3.78;;;;;;;8.43;100.00;162768.78;5047809;28;20090;-62
2023/01/12 06:44:56;;;;;;;5.45;3.45;;;;;;;8.39;100.00;162757.97;5053546;28;20033;-62
2023/01/12 06:47:22;;;;;;;4.45;2.40;;;;;;;8.39;100.00;162757.97;5060330;28;20126;-62
2023/01/12 06:49:50;;;;;;;9.75;3.80;;;;;;;8.38;100.00;162755.25;5056155;28;20028;-62
2023/01/12 06:52:15;;;;;;;5.35;2.60;;;;;;;8.36;100.00;162751.25;5033782;28;20449;-62
2023/01/12 06:54:41;;;;;;;5.00;2.88;;;;;;;8.36;100.00;162749.91;5035918;28;20056;-62
2023/01/12 06:57:06;;;;;;;5.72;2.15;;;;;;;8.34;100.00;162745.84;5047486;28;20044;-62
2023/01/12 06:59:31;;;;;;;11.32;3.97;;;;;;;8.35;100.00;162747.22;5050907;28;20028;-62
2023/01/12 07:01:57;;;;;;;4.88;3.85;;;;;;;8.34;100.00;162744.50;5049936;28;20064;-63
2023/01/12 07:04:22;;;;;;;3.42;2.35;;;;;;;8.32;100.00;162739.09;5052512;28;20091;-63
2023/01/12 07:06:47;;;;;;;11.27;4.10;;;;;;;8.34;100.00;162744.50;5051413;28;20041;-62
2023/01/12 07:09:13;;;;;;;4.72;2.28;;;;;;;8.41;100.00;162763.38;5052163;28;20581;-62
2023/01/12 07:11:38;;;;;;;10.38;3.47;;;;;;;8.43;100.00;162768.78;5050698;28;20060;-63
2023/01/12 07:14:03;;;;;;;5.68;3.47;;;;;;;8.45;100.00;162774.13;5052569;28;20039;-63
2023/01/12 07:16:29;;;;;;;10.13;2.97;;;;;;;8.46;100.00;162776.84;5052517;28;20040;-63
2023/01/12 07:18:54;;;;;;;8.77;4.63;;;;;;;8.48;100.00;162780.97;5058900;28;20029;-63
2023/01/12 07:21:20;;;;;;;8.80;4.10;;;;;;;8.51;100.00;162789.03;5048425;28;20068;-63
2023/01/12 07:23:46;;;;;;;12.75;3.97;;;;;;;8.49;100.00;162785.00;5052186;28;20121;-63
2023/01/12 07:26:12;;;;;;;11.25;3.60;;;;;;;8.51;100.00;162790.41;5050161;28;20540;-63
2023/01/12 07:28:37;;;;;;;4.10;3.47;;;;;;;8.52;100.00;162793.09;5051822;28;20033;-63
2023/01/12 07:31:04;;;;;;;6.95;3.40;;;;;;;8.50;100.00;162787.72;5050156;28;20124;-63
2023/01/12 07:33:30;;;;;;;6.57;3.45;;;;;;;8.53;100.00;162795.75;5052096;28;20025;-62
2023/01/12 07:35:57;;;;;;;3.83;2.45;;;;;;;8.52;100.00;162793.09;5050976;28;20052;-63
2023/01/12 07:38:23;;;;;;;7.28;3.63;;;;;;;8.55;100.00;162799.84;5051416;28;20085;-62
2023/01/12 07:40:48;;;;;;;11.32;4.20;;;;;;;8.53;100.00;162795.75;5050835;28;20450;-62
2023/01/12 07:43:16;;;;;;;5.10;2.40;;;;;;;8.52;100.00;162793.09;5051496;28;20025;-63
2023/01/12 07:45:41;;;;;;;5.68;2.92;;;;;;;8.54;100.00;162798.47;5050811;28;20045;-63
2023/01/12 07:48:07;;;;;;;7.53;2.90;;;;;;;8.55;100.00;162801.16;5051677;28;20587;-62
2023/01/12 07:50:32;;;;;;;7.75;3.55;;;;;;;8.55;100.00;162801.16;5050598;28;20052;-63
2023/01/12 07:53:01;;;;;;;7.78;3.25;;;;;;;8.50;100.00;162787.72;5052150;28;20025;-63
2023/01/12 07:55:26;;;;;;;7.85;3.15;;;;;;;8.62;100.00;162817.34;5049977;28;20029;-63
2023/01/12 07:58:00;;;;;;;4.60;2.60;;;;;;;8.62;100.00;162818.72;5051493;28;20039;-63
2023/01/12 08:00:26;;;;;;;4.18;3.05;;;;;;;8.67;100.00;162832.19;5050413;28;20013;-62
2023/01/12 08:02:54;;;;;;;4.68;3.72;;;;;;;8.70;100.00;162838.91;5051218;28;20025;-63
2023/01/12 08:05:20;;;;;;;6.30;2.60;;;;;;;8.70;100.00;162838.91;5049970;28;20063;-62
2023/01/12 08:07:46;;;;;;;4.28;2.65;;;;;;;8.73;100.00;162848.34;5051070;28;20468;-63
2023/01/12 08:10:12;;;;;;;4.45;3.72;;;;;;;8.77;100.00;162857.78;5050028;28;20035;-62
2023/01/12 08:12:38;;;;;;;3.50;2.90;;;;;;;8.78;100.00;162859.16;5051710;28;20031;-63
2023/01/12 08:15:05;;;;;;;4.28;3.50;;;;;;;8.80;100.00;162864.53;5051792;28;20017;-63
2023/01/12 08:17:38;;;;;;;9.15;4.00;;;;;;;8.79;100.00;162861.81;5049387;28;20045;-63
2023/01/12 08:20:15;;;;;;;3.47;2.72;;;;;;;8.70;100.00;162838.91;5051551;28;20028;-63
2023/01/12 08:22:44;;;;;;;4.00;3.05;;;;;;;8.82;100.00;162871.31;5049943;28;20524;-63
2023/01/12 08:25:15;;;;;;;3.00;2.80;;;;;;;8.91;100.00;162892.81;5050861;28;20033;-63
2023/01/12 08:27:44;;;;;;;5.00;3.60;;;;;;;8.88;100.00;162887.47;5049774;28;20122;-63
2023/01/12 08:30:14;;;;;;;2.97;2.53;;;;;;;8.89;100.00;162890.19;5050827;28;20025;-63
2023/01/12 08:32:40;;;;;;;5.88;2.88;;;;;;;8.96;100.00;162906.34;5048278;28;20503;-63
2023/01/12 08:35:06;;;;;;;3.38;2.70;;;;;;;8.95;100.00;162903.66;5051276;28;20028;-63
2023/01/12 08:37:33;;;;;;;3.58;2.88;;;;;;;8.95;100.00;162903.66;5049215;28;20091;-63
2023/01/12 08:39:59;;;;;;;4.30;2.80;;;;;;;8.99;100.00;162915.78;5051239;28;20029;-63
2023/01/12 08:42:26;;;;;;;2.80;2.55;;;;;;;8.97;100.00;162909.06;5049194;28;20067;-62
2023/01/12 08:44:52;;;;;;;2.47;2.38;;;;;;;8.99;100.00;162914.41;5050569;28;20029;-63
2023/01/12 08:47:19;;;;;;;5.03;2.63;;;;;;;9.03;100.00;162925.22;5048718;28;20047;-63
2023/01/12 08:49:45;;;;;;;10.13;2.45;;;;;;;9.02;100.00;162923.84;5051450;28;20058;-63
2023/01/12 08:52:11;;;;;;;2.38;2.20;;;;;;;9.06;100.00;162933.28;5049367;28;20443;-63
2023/01/12 08:54:37;;;;;;;4.45;3.22;;;;;;;9.07;100.00;162934.66;5050324;28;20062;-62
2023/01/12 08:57:03;;;;;;;2.92;2.72;;;;;;;9.08;100.00;162938.69;5049517;28;20040;-62
2023/01/12 08:59:28;;;;;;;3.72;3.13;;;;;;;9.11;100.00;162946.81;5050511;28;20032;-63
2023/01/12 09:01:53;;;;;;;2.40;2.28;;;;;;;9.08;100.00;162938.69;5048608;28;20102;-63
2023/01/12 09:04:19;;;;;;;5.55;2.83;;;;;;;9.15;100.00;162957.56;5050506;28;20053;-63
2023/01/12 09:06:45;;;;;;;5.07;4.35;;;;;;;9.16;100.00;162958.91;5049444;28;20049;-63
2023/01/12 09:09:13;;;;;;;4.18;3.42;;;;;;;9.20;100.00;162971.03;5049753;28;20583;-62
2023/01/12 09:11:40;;;;;;;9.30;3.13;;;;;;;9.13;100.00;162952.16;5049249;28;20494;-62
2023/01/12 09:14:05;;;;;;;3.72;3.08;;;;;;;9.21;100.00;162973.75;5050893;28;20074;-62
2023/01/12 09:16:32;;;;;;;4.80;2.40;;;;;;;9.24;100.00;162980.47;5048304;28;20053;-62
2023/01/12 09:18:57;;;;;;;3.40;2.67;;;;;;;9.30;100.00;162995.34;5050535;28;20016;-63
2023/01/12 09:21:25;;;;;;;7.70;3.70;;;;;;;9.30;100.00;162995.34;5048839;28;20064;-62
2023/01/12 09:23:54;;;;;;;4.13;2.30;;;;;;;9.38;100.00;163015.59;5050163;28;20083;-64
2023/01/12 09:26:21;;;;;;;;;;;;;;;9.41;100.00;163025.03;5049508;28;20504;-64
2023/01/12 09:28:46;;;;;;;2.78;2.67;;;;;;;9.50;100.00;163047.94;5048089;28;19949;-63
2023/01/12 09:31:18;;;;;;;2.70;2.47;;;;;;;9.52;100.00;163053.34;5046706;28;20827;-63
2023/01/12 09:33:44;;;;;;;2.40;2.20;;;;;;;9.53;100.00;163056.06;5048262;28;20025;-64
2023/01/12 09:36:12;;;;;;;4.38;2.70;;;;;;;9.55;100.00;163061.41;5046719;28;20717;-63
2023/01/12 09:38:39;;;;;;;4.60;2.72;;;;;;;9.56;100.00;163064.13;5048615;28;20088;-63
2023/01/12 09:41:17;;;;;;;3.70;2.25;;;;;;;9.60;100.00;163073.56;5047943;28;20111;-63
2023/01/12 09:49:20;;;;;;;2.08;1.88;;;;;;;9.64;100.00;163085.72;5037759;28;20502;-63
2023/01/12 09:52:09;;;;;;;2.85;2.25;;;;;;;9.64;100.00;163084.38;5048585;28;20575;-63
2023/01/12 09:54:34;;;;;;;3.88;2.00;;;;;;;9.65;100.00;163088.41;5050460;28;20036;-63
2023/01/12 09:57:11;;;;;;;4.53;2.05;;;;;;;9.59;100.00;163072.25;5052800;28;20044;-63
2023/01/12 09:59:45;;;;;;;2.78;2.25;;;;;;;9.57;100.00;163066.81;5054011;28;20025;-63
2023/01/12 10:02:12;;;;;;;2.60;2.50;;;;;;;9.59;100.00;163070.84;5052439;28;20124;-63
2023/01/12 10:04:38;;;;;;;2.90;2.70;;;;;;;9.62;100.00;163078.97;5053882;28;20049;-63
2023/01/12 10:07:04;;;;;;;2.88;2.65;;;;;;;9.61;100.00;163077.59;5052120;28;20036;-62
2023/01/12 10:09:29;;;;;;;2.80;2.60;;;;;;;9.65;100.00;163087.03;5053628;28;20036;-64
2023/01/12 10:12:14;;;;;;;6.70;3.20;;;;;;;9.64;100.00;163085.72;5052476;28;20040;-63
2023/01/12 10:15:05;;;;;;;6.55;2.15;;;;;;;9.62;100.00;163080.31;5055328;28;20120;-63
2023/01/12 10:17:49;;;;;;;2.50;2.22;;;;;;;9.67;100.00;163092.44;5032420;28;20535;-63
2023/01/12 10:20:27;;;;;;;2.42;2.22;;;;;;;9.66;100.00;163089.75;5049514;28;20021;-62
2023/01/12 10:23:10;;;;;;;3.15;2.53;;;;;;;9.71;100.00;163101.91;5064289;28;20082;-63
2023/01/12 10:25:50;;;;;;;2.83;2.60;;;;;;;9.70;100.00;163100.56;5072583;28;20123;-63
2023/01/12 10:28:30;;;;;;;2.63;2.42;;;;;;;9.72;100.00;163105.91;5073546;28;20025;-64
2023/01/12 10:30:56;;;;;;;15.60;3.40;;;;;;;9.73;100.00;163108.63;5054953;28;20048;-63
2023/01/12 10:33:23;;;;;;;2.83;2.58;;;;;;;9.80;100.00;163127.50;5052860;28;20541;-63
2023/01/12 10:35:53;;;;;;;4.30;2.20;;;;;;;9.82;100.00;163132.94;5051911;28;20152;-63
2023/01/12 10:38:27;;;;;;;1.83;1.73;;;;;;;9.82;100.00;163132.94;5061983;28;20031;-64
2023/01/12 10:41:08;;;;;;;1.83;1.73;;;;;;;9.83;100.00;163135.63;5069916;28;20123;-63
2023/01/12 10:43:33;;;;;;;2.42;1.98;;;;;;;9.82;100.00;163132.94;5055946;28;20091;-63
2023/01/12 10:46:16;;;;;;;11.00;2.50;;;;;;;9.82;100.00;163131.59;5052018;28;20048;-63
2023/01/12 10:48:48;;;;;;;3.50;2.17;;;;;;;9.77;100.00;163119.44;5052925;28;20064;-63
2023/01/12 10:51:34;;;;;;;1.48;1.42;;;;;;;9.84;100.00;163138.34;5048647;28;20416;-63
2023/01/12 10:54:17;;;;;;;2.30;2.15;;;;;;;9.87;100.00;163145.06;5060197;28;20040;-64
2023/01/12 10:56:54;;;;;;;1.98;1.77;;;;;;;9.87;100.00;163145.06;5071436;28;20040;-64
2023/01/12 10:59:24;;;;;;;1.77;1.67;;;;;;;9.92;100.00;163158.53;5063361;28;20086;-63
2023/01/12 11:01:50;;;;;;;3.00;1.80;;;;;;;9.94;100.00;163163.97;5038021;28;20079;-63
2023/01/12 11:04:22;;;;;;;3.35;2.20;;;;;;;9.94;100.00;163162.63;5049032;28;20135;-64
2023/01/12 11:07:02;;;;;;;2.03;1.92;;;;;;;9.95;100.00;163165.28;5050217;28;20175;-64
2023/01/12 11:09:30;;;;;;;2.00;1.83;;;;;;;9.98;100.00;163173.41;5052632;28;20028;-64
2023/01/12 11:12:01;;;;;;;2.08;1.90;;;;;;;9.99;100.00;163176.09;5051317;28;20037;-64
2023/01/12 11:14:36;;;;;;;2.20;2.10;;;;;;;9.99;100.00;163176.09;5052409;28;20029;-64
2023/01/12 11:17:30;;;;;;;2.53;1.70;;;;;;;9.96;100.00;163168.00;5051378;28;20090;-64
2023/01/12 11:19:58;;;;;;;1.55;1.50;;;;;;;9.97;100.00;163170.69;5052813;28;20417;-63
2023/01/12 11:22:29;;;;;;;1.80;1.70;;;;;;;9.93;100.00;163159.94;5050574;28;20061;-63
2023/01/12 11:24:59;;;;;;;1.75;1.65;;;;;;;9.86;100.00;163142.38;5052642;28;20040;-63
2023/01/12 11:27:56;;;;;;;1.80;1.70;;;;;;;9.96;100.00;163168.00;5050835;28;20045;-63
2023/01/12 11:30:40;;;;;;;2.88;1.35;;;;;;;9.96;100.00;163168.00;5050132;28;20559;-63
2023/01/12 11:33:07;;;;;;;1.50;1.42;;;;;;;10.01;100.00;163181.53;5050353;28;20357;-63
2023/01/12 11:35:43;;;;;;;2.60;1.88;;;;;;;9.99;100.00;163176.09;5050459;28;20048;-63
2023/01/12 11:38:17;;;;;;;3.45;1.58;;;;;;;9.99;100.00;163176.09;5052048;28;20590;-64
2023/01/12 11:40:44;;;;;;;2.20;1.98;;;;;;;9.93;100.00;163159.94;5050606;28;20045;-63
2023/01/12 11:46:13;;;;;;;1.75;1.65;;;;;;;9.92;100.00;163157.22;5050479;28;20174;-63
2023/01/12 11:49:04;;;;;;;3.72;1.70;;;;;;;9.96;100.00;163168.00;5051910;28;20029;-64
2023/01/12 11:51:29;;;;;;;1.65;1.55;;;;;;;9.97;100.00;163170.69;5038554;28;20410;-64
2023/01/12 11:53:56;;;;;;;2.40;2.20;;;;;;;9.99;100.00;163176.09;5052015;28;20021;-63
2023/01/12 11:56:44;;;;;;;2.38;2.17;;;;;;;10.01;100.00;163181.53;5050196;28;20134;-63
2023/01/12 11:59:28;;;;;;;1.60;1.50;;;;;;;10.02;100.00;163184.19;5051490;28;20479;-63
2023/01/12 12:02:18;;;;;;;1.33;1.33;;;;;;;10.03;100.00;163186.88;5050416;28;20132;-63